Flight Track Log - Related Links

Times and Time Zones

All times are in EDT time to prevent confusion due to time zone crossing. See the N27508 flight status page for this flight to view local times or setup timezone preferences in your user account.

Time Position Orientation Groundspeed Altitude Reporting Facility
EDT Latitude Longitude Course Direction KTS MPH feet Rate Location/Type
Tue 02:09:32 PM 39.9833 -76.2667 186° South 120 138 4,100  Level Potomac TRACON
Tue 02:10:00 PM 39.9504 -76.3000 180° South  Level FlightAware Approximate
Tue 02:10:38 PM 39.9500 -76.2667 180° South 143 165 4,100  Level Potomac TRACON
Tue 02:11:00 PM 39.9121 -76.3167 180° South  Level FlightAware Approximate
Tue 02:11:32 PM 39.9167 -76.2833 201° Southwest 148 170 4,100  Level Potomac TRACON
Tue 02:12:00 PM 39.8713 -76.3167 180° South  Level FlightAware Approximate
Tue 02:12:32 PM 39.8667 -76.3000 194° South 153 176 4,100  Level Potomac TRACON
Tue 02:13:00 PM 39.8330 -76.3334 186° South  Level FlightAware Approximate
Tue 02:13:32 PM 39.8333 -76.3000 180° South 156 180 4,100  Level Potomac TRACON
Tue 02:14:00 PM 39.7925 -76.3386 186° South  Level FlightAware Approximate
Tue 02:14:27 PM 39.7833 -76.3167 194° South 159 183 4,100  Level Potomac TRACON
Tue 02:15:27 PM 39.7500 -76.3333 201° Southwest 157 181 4,100 -50 Level Potomac TRACON
Tue 02:16:27 PM 39.7000 -76.3333 180° South 154 177 4,000  Descending Potomac TRACON
Tue 02:17:27 PM 39.6667 -76.3333 180° South 151 174 4,100 100 Climbing Potomac TRACON
Tue 02:18:27 PM 39.6167 -76.3333 180° South 148 170 4,200 347 Climbing Potomac TRACON
Tue 02:19:28 PM 39.5833 -76.3500 201° Southwest 125 144 4,800 470 Climbing Potomac TRACON
Tue 02:20:22 PM 39.5500 -76.3500 180° South 126 145 5,100 158 Climbing Potomac TRACON
Tue 02:21:22 PM 39.5167 -76.3667 201° Southwest 143 165 5,100  Level Potomac TRACON
Tue 02:22:23 PM 39.4833 -76.3833 201° Southwest 151 174 5,100  Level Potomac TRACON
Tue 02:23:29 PM 39.4333 -76.3833 180° South 156 180 5,100 -50 Level Potomac TRACON
Tue 02:24:24 PM 39.3833 -76.4000 194° South 160 184 5,000  Descending Potomac TRACON
Tue 02:25:24 PM 39.3500 -76.3833 159° South 156 180 5,100 50 Climbing Potomac TRACON
Tue 02:26:24 PM 39.3000 -76.3667 166° South 162 186 5,100  Level Potomac TRACON
Tue 02:27:31 PM 39.2500 -76.3500 166° South 167 192 5,100  Level Potomac TRACON
Tue 02:28:25 PM 39.2167 -76.3500 180° South 158 182 5,100  Level Potomac TRACON
Tue 02:29:26 PM 39.1667 -76.3500 180° South 156 180 5,100  Level Potomac TRACON
Tue 02:30:26 PM 39.1333 -76.3333 159° South 157 181 5,100  Level Potomac TRACON
Tue 02:31:20 PM 39.0833 -76.3333 180° South 158 182 5,100  Level Potomac TRACON
Tue 02:32:43 PM 39.0278 -76.3397 185° South 157 181 5,100  Level Washington Center
Tue 02:33:37 PM 38.9881 -76.3367 177° South 155 178 5,100  Level Washington Center
Tue 02:34:39 PM 38.9464 -76.3308 174° South 154 177 5,100  Level Washington Center
Tue 02:35:40 PM 38.9047 -76.3253 174° South 154 177 5,100  Level Washington Center
Tue 02:36:40 PM 38.8631 -76.3222 177° South 155 178 5,100  Level Washington Center
Tue 02:37:40 PM 38.8153 -76.3164 175° South 155 178 5,100  Level Washington Center
Tue 02:38:41 PM 38.7736 -76.3186 182° South 153 176 5,100  Level Washington Center
Tue 02:39:41 PM 38.7319 -76.3181 179° South 150 173 5,100  Level Washington Center
Tue 02:40:43 PM 38.6903 -76.3150 177° South 154 177 5,100  Level Washington Center
Tue 02:41:44 PM 38.6525 -76.3467 213° Southwest 148 170 5,100 -50 Level Washington Center
Tue 02:42:43 PM 38.6189 -76.3756 214° Southwest 147 169 5,000 -50 Descending Washington Center
Tue 02:43:43 PM 38.5894 -76.4072 220° Southwest 146 168 5,000 -246 Level Washington Center
Tue 02:44:45 PM 38.5519 -76.4306 206° Southwest 167 192 4,500 -439 Descending Washington Center
Tue 02:45:46 PM 38.5017 -76.4511 198° South 175 201 4,100 -200 Descending Washington Center
Tue 02:46:45 PM 38.4639 -76.4772 208° Southwest 154 177 4,100  Level Washington Center
Tue 02:47:45 PM 38.4303 -76.5061 214° Southwest 144 166 4,100  Level Washington Center
Tue 02:48:48 PM 38.3886 -76.5136 188° South 151 174 4,100  Level Washington Center
Tue 02:49:49 PM 38.3467 -76.5314 198° South 154 177 4,100  Level Washington Center
Tue 02:50:50 PM 38.3092 -76.5497 201° Southwest 150 173 4,100 -50 Level Washington Center
Tue 02:51:50 PM 38.2692 -76.5703 202° Southwest 148 170 4,000  Descending Washington Center
Tue 02:52:51 PM 38.2336 -76.6014 215° Southwest 144 166 4,100 50 Climbing Washington Center
Tue 02:53:51 PM 38.1981 -76.6222 205° Southwest 151 174 4,100  Level Washington Center
Tue 02:54:49 PM 38.1542 -76.6269 185° South 155 178 4,100  Level Washington Center
Tue 02:56:34 PM 38.0833 -76.6667 204° Southwest 153 176 4,100  Level Potomac TRACON
Tue 02:57:34 PM 38.0500 -76.6833 201° Southwest 157 181 4,100  Level Potomac TRACON
Tue 02:58:40 PM 38.0333 -76.7333 247° West 146 168 4,100  Level Potomac TRACON
Tue 02:59:40 PM 38.0000 -76.7667 218° Southwest 146 168 4,100  Level Potomac TRACON
Tue 03:00:34 PM 37.9833 -76.8167 247° West 150 173 4,100  Level Potomac TRACON
Tue 03:01:34 PM 37.9500 -76.8500 218° Southwest 152 175 4,100  Level Potomac TRACON
Tue 03:02:34 PM 37.9167 -76.8667 202° Southwest 149 171 4,100  Level Potomac TRACON
Tue 03:03:29 PM 37.8833 -76.9000 218° Southwest 145 167 4,100  Level Potomac TRACON
Tue 03:04:35 PM 37.8500 -76.9333 218° Southwest 147 169 4,100  Level Potomac TRACON
Tue 03:05:29 PM 37.8333 -76.9667 238° Southwest 149 171 4,100  Level Potomac TRACON
Tue 03:06:35 PM 37.8000 -77.0000 218° Southwest 150 173 4,100  Level Potomac TRACON
Tue 03:07:35 PM 37.7667 -77.0500 230° Southwest 157 181 4,100  Level Potomac TRACON
Tue 03:08:41 PM 37.7667 -77.1000 270° West 153 176 4,100  Level Potomac TRACON
Tue 03:09:35 PM 37.7667 -77.1500 270° West 155 178 4,100  Level Potomac TRACON
Tue 03:10:29 PM 37.7500 -77.2000 247° West 158 182 4,100 -211 Level Potomac TRACON
Tue 03:11:29 PM 37.7500 -77.2500 270° West 166 191 3,700 -550 Descending Potomac TRACON
Tue 03:12:29 PM 37.7500 -77.3167 270° West 179 206 3,000 -550 Descending Potomac TRACON
Tue 03:13:29 PM 37.7333 -77.3667 247° West 161 185 2,600 -200 Descending Potomac TRACON
Tue 03:14:29 PM 37.7167 -77.4167 247° West 160 184 2,600  Level Potomac TRACON
Tue 03:15:29 PM 37.6833 -77.4333 202° Southwest 149 171 2,600  Level Potomac TRACON
Tue 03:16:29 PM 37.6500 -77.4333 180° South 146 168 2,600  Level Potomac TRACON
Tue 03:17:29 PM 37.6167 -77.4000 142° Southeast 133 153 2,600 -450 Level Potomac TRACON
Tue 03:18:29 PM 37.5833 -77.3833 158° South 132 152 1,700 -800 Descending Potomac TRACON
Tue 03:19:29 PM 37.5500 -77.3500 142° Southeast 123 142 1,000 -595 Descending Potomac TRACON
Tue 03:20:30 PM 37.5333 -77.3333 142° Southeast 104 120 500 -492 Descending Potomac TRACON
Tue 03:22:00 PM 37.5000 -77.3167 153° Southeast  Level FlightAware Approximate
Tue 03:29:00 PM 37.5052 -77.3197 153° Southeast  Level Estimated
Tue 03:30:00 PM 37.5000 -77.3167 153° Southeast  Level FlightAware Approximate

Login

Don't have an account? Register now (free) for customized features, flight alerts, and more!